Wetterdaten: Woche 24.10.16 - 30.10.16 (KW43)
Datum Zeit Temp. A. Feuchte A. Luftdruck Regen Wind Richtung Taupunkt Windchill Windben
24.10.2016 00:00 9,0 C 93 % 1012,6 hPa 0,0 l/m 0,7 km/h (0 Bft) O 8,0 C 9,0 C 2,3 km/h (1 Bft)
24.10.2016 01:00 8,5 C 95 % 1012,8 hPa 0,0 l/m 0,7 km/h (0 Bft) SW 7,7 C 8,5 C 2,4 km/h (1 Bft)
24.10.2016 02:00 9,1 C 94 % 1013,1 hPa 0,0 l/m 2,0 km/h (1 Bft) O 8,1 C 9,1 C 5,9 km/h (2 Bft)
24.10.2016 03:00 9,1 C 94 % 1013,2 hPa 0,3 l/m 2,4 km/h (1 Bft) O-NO 8,2 C 9,1 C 5,1 km/h (1 Bft)
24.10.2016 04:00 8,7 C 95 % 1013,4 hPa 1,3 l/m 0,6 km/h (0 Bft) S-SW 7,9 C 8,7 C 2,4 km/h (1 Bft)
24.10.2016 05:00 8,4 C 96 % 1013,3 hPa 0,5 l/m 0,0 km/h (0 Bft) S-SW 7,8 C 8,4 C 0,4 km/h (0 Bft)
24.10.2016 06:00 8,2 C 96 % 1013,2 hPa 0,0 l/m 0,0 km/h (0 Bft) S-SW 7,6 C 8,2 C 0,2 km/h (0 Bft)
24.10.2016 07:00 7,5 C 97 % 1013,1 hPa 0,0 l/m 0,0 km/h (0 Bft) S-SW 7,0 C 7,5 C 0,5 km/h (0 Bft)
24.10.2016 08:00 7,3 C 97 % 1013,4 hPa 0,3 l/m 0,1 km/h (0 Bft) S-SW 7,0 C 7,3 C 0,7 km/h (0 Bft)
24.10.2016 09:00 8,0 C 98 % 1013,9 hPa 0,0 l/m 0,1 km/h (0 Bft) S-SW 7,7 C 8,0 C 0,7 km/h (0 Bft)
24.10.2016 10:00 9,3 C 98 % 1013,9 hPa 0,0 l/m 0,8 km/h (0 Bft) S-SW 9,0 C 9,3 C 2,5 km/h (1 Bft)
24.10.2016 11:00 10,9 C 96 % 1013,8 hPa 0,3 l/m 0,5 km/h (0 Bft) O-NO 10,3 C 10,9 C 1,8 km/h (1 Bft)
24.10.2016 12:00 11,7 C 96 % 1013,5 hPa 0,0 l/m 1,0 km/h (0 Bft) N 11,2 C 11,7 C 1,6 km/h (1 Bft)
24.10.2016 13:00 13,0 C 92 % 1013,2 hPa 0,0 l/m 1,4 km/h (1 Bft) O 11,7 C 13,0 C 4,8 km/h (1 Bft)
24.10.2016 14:00 13,4 C 93 % 1012,9 hPa 0,0 l/m 0,5 km/h (0 Bft) O 12,3 C 13,4 C 2,7 km/h (1 Bft)
24.10.2016 15:00 13,8 C 92 % 1012,9 hPa 0,0 l/m 0,5 km/h (0 Bft) O 12,6 C 13,8 C 2,1 km/h (1 Bft)
24.10.2016 16:00 14,1 C 93 % 1012,9 hPa 0,0 l/m 0,3 km/h (0 Bft) O 13,0 C 14,1 C 1,7 km/h (1 Bft)
24.10.2016 17:00 13,7 C 94 % 1013,1 hPa 0,0 l/m 0,1 km/h (0 Bft) O 12,7 C 13,7 C 0,7 km/h (0 Bft)
24.10.2016 18:00 12,7 C 94 % 1013,4 hPa 0,0 l/m 0,0 km/h (0 Bft) O 11,8 C 12,7 C 0,2 km/h (0 Bft)
24.10.2016 19:00 11,5 C 96 % 1013,7 hPa 0,0 l/m 0,0 km/h (0 Bft) O 10,9 C 11,5 C 0,0 km/h (0 Bft)
24.10.2016 20:00 10,8 C 97 % 1013,9 hPa 1,5 l/m 0,0 km/h (0 Bft) O 10,3 C 10,8 C 0,1 km/h (0 Bft)
24.10.2016 21:00 11,1 C 97 % 1013,9 hPa 1,5 l/m 0,3 km/h (0 Bft) O 10,7 C 11,1 C 1,6 km/h (1 Bft)
24.10.2016 22:00 12,4 C 98 % 1014,4 hPa 0,8 l/m 1,3 km/h (1 Bft) NO 12,1 C 12,4 C 4,4 km/h (1 Bft)
24.10.2016 23:00 12,8 C 97 % 1015,5 hPa 1,0 l/m 0,3 km/h (0 Bft) SO 12,3 C 12,8 C 1,6 km/h (1 Bft)
25.10.2016 00:00 12,4 C 97 % 1015,6 hPa 3,3 l/m 0,7 km/h (0 Bft) SO 11,9 C 12,4 C 2,2 km/h (1 Bft)
25.10.2016 01:00 12,3 C 98 % 1016,0 hPa 1,3 l/m 1,7 km/h (1 Bft) O 11,9 C 12,3 C 4,3 km/h (1 Bft)
25.10.2016 02:00 12,4 C 97 % 1017,3 hPa 3,6 l/m 3,2 km/h (1 Bft) O-NO 12,0 C 12,4 C 7,5 km/h (2 Bft)
25.10.2016 03:00 12,4 C 97 % 1017,2 hPa 1,5 l/m 3,0 km/h (1 Bft) O-NO 11,9 C 12,4 C 7,1 km/h (2 Bft)
25.10.2016 04:00 12,0 C 97 % 1017,0 hPa 0,3 l/m 1,4 km/h (1 Bft) O-NO 11,6 C 12,0 C 3,5 km/h (1 Bft)
25.10.2016 05:00 11,9 C 97 % 1017,6 hPa 2,0 l/m 3,1 km/h (1 Bft) O-NO 11,4 C 11,8 C 6,4 km/h (2 Bft)
25.10.2016 06:00 12,0 C 97 % 1018,3 hPa 0,3 l/m 6,1 km/h (2 Bft) O-NO 11,5 C 11,8 C 13,7 km/h (3 Bft)
25.10.2016 07:00 11,9 C 97 % 1019,1 hPa 0,5 l/m 3,0 km/h (1 Bft) O-NO 11,4 C 11,9 C 7,6 km/h (2 Bft)
25.10.2016 08:00 11,8 C 97 % 1020,0 hPa 0,0 l/m 1,4 km/h (1 Bft) O-NO 11,3 C 11,8 C 4,0 km/h (1 Bft)
25.10.2016 09:00 11,7 C 97 % 1020,7 hPa 0,3 l/m 0,4 km/h (0 Bft) S 11,2 C 11,7 C 2,0 km/h (1 Bft)
25.10.2016 10:00 11,8 C 97 % 1020,9 hPa 0,0 l/m 0,3 km/h (0 Bft) S 11,3 C 11,8 C 1,5 km/h (1 Bft)
25.10.2016 11:00 12,2 C 95 % 1021,2 hPa 0,0 l/m 1,1 km/h (1 Bft) O 11,5 C 12,2 C 3,2 km/h (1 Bft)
25.10.2016 12:00 12,2 C 95 % 1021,2 hPa 0,0 l/m 0,6 km/h (0 Bft) O 11,5 C 12,2 C 1,9 km/h (1 Bft)
25.10.2016 13:00 12,6 C 94 % 1020,9 hPa 0,0 l/m 0,4 km/h (0 Bft) O 11,7 C 12,6 C 1,7 km/h (1 Bft)
25.10.2016 14:00 12,7 C 94 % 1021,0 hPa 0,0 l/m 0,9 km/h (0 Bft) O-NO 11,7 C 12,7 C 3,3 km/h (1 Bft)
25.10.2016 15:00 12,5 C 94 % 1021,1 hPa 0,0 l/m 0,5 km/h (0 Bft) N-NW 11,6 C 12,5 C 2,7 km/h (1 Bft)
25.10.2016 16:00 12,3 C 94 % 1021,4 hPa 0,0 l/m 0,6 km/h (0 Bft) W 11,4 C 12,3 C 2,5 km/h (1 Bft)
25.10.2016 17:00 12,1 C 95 % 1021,9 hPa 0,0 l/m 0,0 km/h (0 Bft) W 11,3 C 12,1 C 0,5 km/h (0 Bft)
25.10.2016 18:00 11,9 C 96 % 1022,1 hPa 0,0 l/m 0,1 km/h (0 Bft) W 11,2 C 11,9 C 0,7 km/h (0 Bft)
25.10.2016 19:00 11,6 C 96 % 1022,6 hPa 0,0 l/m 0,4 km/h (0 Bft) W 11,0 C 11,6 C 2,0 km/h (1 Bft)
25.10.2016 20:00 11,3 C 96 % 1023,0 hPa 0,8 l/m 0,4 km/h (0 Bft) W 10,7 C 11,3 C 1,9 km/h (1 Bft)
25.10.2016 21:00 10,9 C 97 % 1023,4 hPa 0,0 l/m 1,5 km/h (1 Bft) W-NW 10,4 C 10,9 C 5,1 km/h (1 Bft)
25.10.2016 22:00 10,4 C 97 % 1023,7 hPa 0,0 l/m 1,3 km/h (1 Bft) W-NW 10,0 C 10,4 C 4,7 km/h (1 Bft)
25.10.2016 23:00 9,8 C 97 % 1024,2 hPa 0,0 l/m 1,5 km/h (1 Bft) W 9,4 C 9,8 C 4,7 km/h (1 Bft)
26.10.2016 00:00 9,5 C 97 % 1024,3 hPa 0,0 l/m 0,7 km/h (0 Bft) NW 9,0 C 9,5 C 2,4 km/h (1 Bft)
26.10.2016 01:00 9,1 C 97 % 1024,6 hPa 0,0 l/m 0,6 km/h (0 Bft) S-SO 8,7 C 9,1 C 2,8 km/h (1 Bft)
26.10.2016 02:00 8,9 C 97 % 1024,8 hPa 0,0 l/m 0,2 km/h (0 Bft) S-SW 8,5 C 8,9 C 1,9 km/h (1 Bft)
26.10.2016 03:00 8,8 C 97 % 1024,9 hPa 0,0 l/m 0,1 km/h (0 Bft) S-SW 8,4 C 8,8 C 1,2 km/h (1 Bft)
26.10.2016 04:00 8,8 C 97 % 1024,7 hPa 0,0 l/m 0,0 km/h (0 Bft) S-SW 8,4 C 8,8 C 0,1 km/h (0 Bft)
26.10.2016 05:00 8,7 C 97 % 1024,7 hPa 0,0 l/m 0,2 km/h (0 Bft) S-SW 8,3 C 8,7 C 1,3 km/h (1 Bft)
26.10.2016 06:00 8,7 C 97 % 1024,8 hPa 0,0 l/m 0,2 km/h (0 Bft) S-SW 8,3 C 8,7 C 0,7 km/h (0 Bft)
26.10.2016 07:00 8,7 C 97 % 1025,1 hPa 0,0 l/m 0,2 km/h (0 Bft) S-SW 8,3 C 8,7 C 1,2 km/h (1 Bft)
26.10.2016 08:00 8,8 C 97 % 1025,7 hPa 0,0 l/m 1,0 km/h (0 Bft) SW 8,3 C 8,8 C 3,5 km/h (1 Bft)
26.10.2016 09:00 8,7 C 97 % 1026,1 hPa 0,0 l/m 0,9 km/h (0 Bft) W 8,3 C 8,7 C 3,5 km/h (1 Bft)
26.10.2016 10:00 9,2 C 96 % 1026,4 hPa 0,0 l/m 1,5 km/h (1 Bft) W 8,6 C 9,2 C 4,3 km/h (1 Bft)
26.10.2016 11:00 9,8 C 94 % 1026,7 hPa 0,0 l/m 1,3 km/h (1 Bft) NW 9,0 C 9,8 C 3,9 km/h (1 Bft)
26.10.2016 12:00 10,3 C 92 % 1026,9 hPa 0,0 l/m 1,1 km/h (1 Bft) W-SW 9,0 C 10,3 C 3,2 km/h (1 Bft)
26.10.2016 13:00 10,9 C 85 % 1026,8 hPa 0,0 l/m 1,0 km/h (0 Bft) S 8,5 C 10,9 C 3,6 km/h (1 Bft)
26.10.2016 14:00 11,5 C 81 % 1026,5 hPa 0,0 l/m 1,5 km/h (1 Bft) W-NW 8,3 C 11,5 C 4,5 km/h (1 Bft)
26.10.2016 15:00 11,4 C 81 % 1026,7 hPa 0,0 l/m 1,5 km/h (1 Bft) S-SO 8,2 C 11,4 C 4,4 km/h (1 Bft)
26.10.2016 16:00 11,1 C 80 % 1026,9 hPa 0,0 l/m 0,6 km/h (0 Bft) S 7,8 C 11,1 C 1,9 km/h (1 Bft)
26.10.2016 17:00 10,5 C 89 % 1027,1 hPa 0,0 l/m 0,6 km/h (0 Bft) W-SW 8,7 C 10,5 C 1,7 km/h (1 Bft)
26.10.2016 18:00 9,7 C 93 % 1027,5 hPa 0,0 l/m 0,1 km/h (0 Bft) N 8,6 C 9,7 C 0,8 km/h (0 Bft)
26.10.2016 19:00 8,4 C 95 % 1028,0 hPa 0,0 l/m 0,1 km/h (0 Bft) N 7,6 C 8,4 C 0,4 km/h (0 Bft)
26.10.2016 20:00 7,9 C 96 % 1028,7 hPa 0,0 l/m 0,1 km/h (0 Bft) N 7,3 C 7,9 C 0,8 km/h (0 Bft)
26.10.2016 21:00 7,5 C 96 % 1029,3 hPa 0,0 l/m 0,0 km/h (0 Bft) W-SW 7,0 C 7,5 C 0,3 km/h (0 Bft)
26.10.2016 22:00 7,0 C 97 % 1029,7 hPa 0,0 l/m 0,1 km/h (0 Bft) W-SW 6,5 C 7,0 C 0,5 km/h (0 Bft)
26.10.2016 23:00 7,2 C 97 % 1030,1 hPa 0,0 l/m 0,1 km/h (0 Bft) W-SW 6,8 C 7,2 C 0,8 km/h (0 Bft)
27.10.2016 00:00 7,1 C 98 % 1030,3 hPa 0,0 l/m 0,0 km/h (0 Bft) N 6,8 C 7,1 C 0,5 km/h (0 Bft)
27.10.2016 01:00 6,7 C 98 % 1030,7 hPa 0,0 l/m 0,2 km/h (0 Bft) N 6,3 C 6,7 C 1,1 km/h (0 Bft)
27.10.2016 02:00 6,6 C 98 % 1030,8 hPa 0,0 l/m 0,3 km/h (0 Bft) W-SW 6,3 C 6,6 C 1,5 km/h (1 Bft)
27.10.2016 03:00 5,2 C 96 % 1031,0 hPa 0,0 l/m 0,0 km/h (0 Bft) W-SW 4,7 C 5,2 C 0,1 km/h (0 Bft)
27.10.2016 04:00 4,6 C 97 % 1031,2 hPa 0,0 l/m 0,2 km/h (0 Bft) W-SW 4,2 C 4,6 C 1,1 km/h (0 Bft)
27.10.2016 05:00 3,8 C 98 % 1031,5 hPa 0,0 l/m 1,3 km/h (1 Bft) W-SW 3,5 C 3,8 C 2,5 km/h (1 Bft)
27.10.2016 06:00 3,4 C 98 % 1031,8 hPa 0,3 l/m 0,9 km/h (0 Bft) W-SW 3,1 C 3,4 C 2,5 km/h (1 Bft)
27.10.2016 07:00 3,1 C 98 % 1032,3 hPa 0,0 l/m 0,3 km/h (0 Bft) W-SW 2,8 C 3,1 C 1,6 km/h (1 Bft)
27.10.2016 08:00 2,6 C 98 % 1033,1 hPa 0,0 l/m 0,5 km/h (0 Bft) W-SW 2,3 C 2,6 C 1,9 km/h (1 Bft)
27.10.2016 09:00 2,7 C 98 % 1034,0 hPa 0,0 l/m 0,4 km/h (0 Bft) W-SW 2,4 C 2,7 C 1,9 km/h (1 Bft)
27.10.2016 10:00 4,5 C 98 % 1034,4 hPa 0,0 l/m 0,6 km/h (0 Bft) W-SW 4,2 C 4,5 C 2,1 km/h (1 Bft)
27.10.2016 11:00 8,1 C 92 % 1034,5 hPa 0,0 l/m 1,7 km/h (1 Bft) NW 6,9 C 8,1 C 3,5 km/h (1 Bft)
27.10.2016 12:00 10,5 C 80 % 1034,5 hPa 0,0 l/m 2,4 km/h (1 Bft) NO 7,2 C 10,5 C 4,6 km/h (1 Bft)
27.10.2016 13:00 12,1 C 72 % 1034,0 hPa 0,0 l/m 2,4 km/h (1 Bft) N-NO 7,2 C 12,1 C 5,7 km/h (2 Bft)
27.10.2016 14:00 13,0 C 67 % 1033,7 hPa 0,0 l/m 2,0 km/h (1 Bft) O-SO 6,9 C 13,0 C 4,8 km/h (1 Bft)
27.10.2016 15:00 13,8 C 62 % 1033,3 hPa 0,0 l/m 1,8 km/h (1 Bft) SW 6,8 C 13,8 C 4,5 km/h (1 Bft)
27.10.2016 16:00 13,3 C 65 % 1033,2 hPa 0,0 l/m 2,0 km/h (1 Bft) N-NO 6,8 C 13,3 C 4,9 km/h (1 Bft)
27.10.2016 17:00 11,9 C 74 % 1033,2 hPa 0,0 l/m 0,5 km/h (0 Bft) N-NO 7,3 C 11,9 C 1,6 km/h (1 Bft)
27.10.2016 18:00 9,0 C 83 % 1033,5 hPa 0,0 l/m 0,0 km/h (0 Bft) N-NO 6,3 C 9,0 C 0,3 km/h (0 Bft)
27.10.2016 19:00 5,6 C 91 % 1034,2 hPa 0,0 l/m 0,0 km/h (0 Bft) N-NO 4,3 C 5,6 C 0,4 km/h (0 Bft)
27.10.2016 20:00 4,1 C 94 % 1034,5 hPa 0,0 l/m 0,0 km/h (0 Bft) N-NO 3,2 C 4,1 C 0,1 km/h (0 Bft)
27.10.2016 21:00 3,5 C 95 % 1034,6 hPa 0,0 l/m 0,0 km/h (0 Bft) N-NO 2,8 C 3,5 C 0,3 km/h (0 Bft)
27.10.2016 22:00 2,9 C 96 % 1034,6 hPa 0,0 l/m 0,0 km/h (0 Bft) N-NO 2,3 C 2,9 C 0,0 km/h (0 Bft)
27.10.2016 23:00 2,5 C 96 % 1034,5 hPa 0,0 l/m 0,1 km/h (0 Bft) N-NO 2,0 C 2,5 C 0,8 km/h (0 Bft)
28.10.2016 00:00 2,3 C 97 % 1034,5 hPa 0,0 l/m 0,0 km/h (0 Bft) N 1,9 C 2,3 C 0,6 km/h (0 Bft)
28.10.2016 01:00 1,9 C 97 % 1034,4 hPa 0,0 l/m 0,1 km/h (0 Bft) N 1,5 C 1,9 C 0,5 km/h (0 Bft)
28.10.2016 02:00 1,7 C 97 % 1034,3 hPa 0,0 l/m 0,0 km/h (0 Bft) N 1,3 C 1,7 C 0,2 km/h (0 Bft)
28.10.2016 03:00 2,0 C 97 % 1034,0 hPa 0,0 l/m 0,0 km/h (0 Bft) N 1,5 C 2,0 C 0,5 km/h (0 Bft)
28.10.2016 04:00 1,9 C 97 % 1033,8 hPa 0,0 l/m 0,0 km/h (0 Bft) N 1,5 C 1,9 C 0,4 km/h (0 Bft)
28.10.2016 05:00 1,4 C 97 % 1033,7 hPa 0,0 l/m 0,0 km/h (0 Bft) N 0,9 C 1,4 C 0,1 km/h (0 Bft)
28.10.2016 06:00 0,8 C 97 % 1034,1 hPa 0,0 l/m 0,0 km/h (0 Bft) N-NO 0,4 C 0,8 C 0,2 km/h (0 Bft)
28.10.2016 07:00 0,9 C 98 % 1034,4 hPa 0,3 l/m 0,2 km/h (0 Bft) N-NO 0,5 C 0,9 C 1,2 km/h (1 Bft)
28.10.2016 08:00 0,6 C 98 % 1034,6 hPa 0,0 l/m 0,0 km/h (0 Bft) N-NO 0,3 C 0,6 C 0,4 km/h (0 Bft)
28.10.2016 09:00 1,5 C 98 % 1035,1 hPa 0,0 l/m 0,2 km/h (0 Bft) N-NO 1,2 C 1,5 C 1,1 km/h (0 Bft)
28.10.2016 10:00 4,9 C 98 % 1034,8 hPa 0,0 l/m 1,0 km/h (0 Bft) N-NO 4,6 C 4,9 C 2,7 km/h (1 Bft)
28.10.2016 11:00 9,4 C 89 % 1034,8 hPa 0,0 l/m 1,7 km/h (1 Bft) N-NO 7,6 C 9,4 C 3,9 km/h (1 Bft)
28.10.2016 12:00 12,5 C 75 % 1034,7 hPa 0,0 l/m 3,0 km/h (1 Bft) NO 8,3 C 12,5 C 6,1 km/h (2 Bft)
28.10.2016 13:00 14,5 C 65 % 1034,3 hPa 0,0 l/m 4,0 km/h (1 Bft) NO 7,9 C 14,5 C 8,8 km/h (2 Bft)
28.10.2016 14:00 15,0 C 65 % 1034,2 hPa 0,0 l/m 3,9 km/h (1 Bft) N-NO 8,4 C 15,0 C 8,7 km/h (2 Bft)
28.10.2016 15:00 15,5 C 63 % 1034,0 hPa 0,0 l/m 2,7 km/h (1 Bft) O 8,6 C 15,5 C 6,5 km/h (2 Bft)
28.10.2016 16:00 15,7 C 64 % 1034,2 hPa 0,0 l/m 1,9 km/h (1 Bft) O-NO 8,8 C 15,7 C 5,1 km/h (1 Bft)
28.10.2016 17:00 12,7 C 76 % 1034,6 hPa 0,0 l/m 0,6 km/h (0 Bft) NO 8,5 C 12,7 C 1,6 km/h (1 Bft)
28.10.2016 18:00 9,4 C 86 % 1034,5 hPa 0,0 l/m 0,2 km/h (0 Bft) N 7,2 C 9,4 C 0,7 km/h (0 Bft)
28.10.2016 19:00 6,9 C 91 % 1035,2 hPa 0,0 l/m 0,2 km/h (0 Bft) N 5,5 C 6,9 C 0,7 km/h (0 Bft)
28.10.2016 20:00 5,5 C 94 % 1035,5 hPa 0,0 l/m 0,1 km/h (0 Bft) N 4,6 C 5,5 C 0,5 km/h (0 Bft)
28.10.2016 21:00 5,1 C 95 % 1035,2 hPa 0,0 l/m 0,3 km/h (0 Bft) N 4,4 C 5,1 C 1,0 km/h (0 Bft)
28.10.2016 22:00 4,6 C 95 % 1035,2 hPa 0,0 l/m 0,2 km/h (0 Bft) N 3,9 C 4,6 C 0,6 km/h (0 Bft)
28.10.2016 23:00 4,1 C 96 % 1035,0 hPa 0,0 l/m 0,0 km/h (0 Bft) N 3,5 C 4,1 C 0,3 km/h (0 Bft)
29.10.2016 00:00 4,2 C 97 % 1035,0 hPa 0,0 l/m 0,1 km/h (0 Bft) O-SO 3,7 C 4,2 C 0,8 km/h (0 Bft)
29.10.2016 01:00 3,6 C 97 % 1035,0 hPa 0,0 l/m 0,2 km/h (0 Bft) O-SO 3,2 C 3,6 C 1,1 km/h (0 Bft)
29.10.2016 02:00 3,3 C 97 % 1034,7 hPa 0,0 l/m 0,1 km/h (0 Bft) O-SO 2,9 C 3,3 C 0,9 km/h (0 Bft)
29.10.2016 03:00 3,3 C 97 % 1034,9 hPa 0,0 l/m 0,2 km/h (0 Bft) O-SO 2,8 C 3,3 C 0,9 km/h (0 Bft)
29.10.2016 04:00 2,9 C 97 % 1034,4 hPa 0,0 l/m 0,2 km/h (0 Bft) O-SO 2,4 C 2,9 C 1,1 km/h (0 Bft)
29.10.2016 05:00 3,0 C 98 % 1034,4 hPa 0,0 l/m 0,1 km/h (0 Bft) O-SO 2,7 C 3,0 C 0,6 km/h (0 Bft)
29.10.2016 06:00 3,1 C 98 % 1034,5 hPa 0,0 l/m 0,0 km/h (0 Bft) O-SO 2,8 C 3,1 C 0,6 km/h (0 Bft)
29.10.2016 07:00 3,5 C 98 % 1034,5 hPa 0,0 l/m 0,0 km/h (0 Bft) O-SO 3,2 C 3,5 C 0,4 km/h (0 Bft)
29.10.2016 08:00 4,0 C 98 % 1034,6 hPa 0,0 l/m 0,0 km/h (0 Bft) O-SO 3,7 C 4,0 C 0,4 km/h (0 Bft)
29.10.2016 09:00 5,0 C 98 % 1034,6 hPa 0,0 l/m 0,1 km/h (0 Bft) O-SO 4,7 C 5,0 C 1,1 km/h (0 Bft)
29.10.2016 10:00 6,5 C 98 % 1034,7 hPa 0,0 l/m 0,3 km/h (0 Bft) N 6,2 C 6,5 C 1,5 km/h (1 Bft)
29.10.2016 11:00 8,3 C 99 % 1034,5 hPa 0,0 l/m 0,4 km/h (0 Bft) O-SO 8,0 C 8,3 C 1,7 km/h (1 Bft)
29.10.2016 12:00 9,2 C 98 % 1034,4 hPa 0,0 l/m 0,7 km/h (0 Bft) O-SO 9,0 C 9,2 C 1,8 km/h (1 Bft)
29.10.2016 13:00 9,6 C 96 % 1033,9 hPa 0,0 l/m 1,7 km/h (1 Bft) W 8,9 C 9,6 C 4,8 km/h (1 Bft)
29.10.2016 14:00 9,9 C 92 % 1033,3 hPa 0,0 l/m 1,5 km/h (1 Bft) W 8,7 C 9,9 C 4,3 km/h (1 Bft)
29.10.2016 15:00 11,4 C 81 % 1032,8 hPa 0,0 l/m 1,8 km/h (1 Bft) NW 8,2 C 11,4 C 4,7 km/h (1 Bft)
29.10.2016 16:00 12,5 C 73 % 1032,4 hPa 0,0 l/m 1,3 km/h (1 Bft) O-NO 7,9 C 12,5 C 3,6 km/h (1 Bft)
29.10.2016 17:00 11,7 C 78 % 1032,2 hPa 0,0 l/m 0,2 km/h (0 Bft) O-NO 7,9 C 11,7 C 1,0 km/h (0 Bft)
29.10.2016 18:00 8,3 C 86 % 1032,2 hPa 0,0 l/m 0,0 km/h (0 Bft) N 6,1 C 8,3 C 0,2 km/h (0 Bft)
29.10.2016 19:00 5,6 C 92 % 1032,6 hPa 0,0 l/m 0,0 km/h (0 Bft) N 4,4 C 5,6 C 0,1 km/h (0 Bft)
29.10.2016 20:00 4,2 C 95 % 1032,5 hPa 0,0 l/m 0,0 km/h (0 Bft) N 3,4 C 4,2 C 0,3 km/h (0 Bft)
29.10.2016 21:00 3,2 C 95 % 1032,6 hPa 0,0 l/m 0,2 km/h (0 Bft) N 2,5 C 3,2 C 0,4 km/h (0 Bft)
29.10.2016 22:00 2,4 C 96 % 1032,7 hPa 0,0 l/m 0,0 km/h (0 Bft) N 1,9 C 2,4 C 0,1 km/h (0 Bft)
29.10.2016 23:00 2,0 C 97 % 1032,8 hPa 0,0 l/m 0,0 km/h (0 Bft) N 1,5 C 2,0 C 0,0 km/h (0 Bft)
30.10.2016 00:00 1,8 C 97 % 1032,6 hPa 0,0 l/m 0,0 km/h (0 Bft) N 1,4 C 1,8 C 0,1 km/h (0 Bft)
30.10.2016 01:00 1,2 C 97 % 1032,1 hPa 0,0 l/m 0,0 km/h (0 Bft) O-NO 0,7 C 1,2 C 0,0 km/h (0 Bft)
30.10.2016 02:00 1,5 C 98 % 1031,8 hPa 0,0 l/m 0,1 km/h (0 Bft) O-NO 1,2 C 1,5 C 0,8 km/h (0 Bft)
30.10.2016 03:00 2,7 C 98 % 1031,4 hPa 0,0 l/m 0,2 km/h (0 Bft) O-NO 2,4 C 2,7 C 1,2 km/h (1 Bft)
30.10.2016 04:00 3,2 C 98 % 1031,0 hPa 0,0 l/m 0,2 km/h (0 Bft) O-NO 2,9 C 3,2 C 1,3 km/h (1 Bft)
30.10.2016 05:00 3,7 C 98 % 1030,7 hPa 0,0 l/m 0,1 km/h (0 Bft) O-NO 3,4 C 3,7 C 0,9 km/h (0 Bft)
30.10.2016 06:00 3,9 C 98 % 1030,5 hPa 0,0 l/m 0,3 km/h (0 Bft) O-NO 3,6 C 3,9 C 1,0 km/h (0 Bft)
30.10.2016 07:00 4,2 C 98 % 1030,5 hPa 0,0 l/m 0,1 km/h (0 Bft) O-NO 3,8 C 4,2 C 1,2 km/h (1 Bft)
30.10.2016 08:00 4,9 C 98 % 1031,0 hPa 0,0 l/m 0,4 km/h (0 Bft) O-NO 4,6 C 4,9 C 2,0 km/h (1 Bft)
30.10.2016 09:00 6,0 C 98 % 1031,0 hPa 0,0 l/m 1,7 km/h (1 Bft) S-SW 5,6 C 6,0 C 4,8 km/h (1 Bft)
30.10.2016 10:00 6,9 C 96 % 1030,7 hPa 0,0 l/m 1,5 km/h (1 Bft) S-SW 6,3 C 6,9 C 3,9 km/h (1 Bft)
30.10.2016 11:00 9,8 C 87 % 1030,3 hPa 0,0 l/m 1,8 km/h (1 Bft) S-SW 7,7 C 9,8 C 4,3 km/h (1 Bft)
30.10.2016 12:00 12,0 C 76 % 1029,8 hPa 0,0 l/m 2,3 km/h (1 Bft) S-SW 7,8 C 12,0 C 5,4 km/h (1 Bft)
30.10.2016 13:00 14,1 C 57 % 1029,0 hPa 0,0 l/m 3,2 km/h (1 Bft) S-SW 5,5 C 14,1 C 8,3 km/h (2 Bft)
30.10.2016 14:00 14,4 C 55 % 1028,7 hPa 0,0 l/m 3,5 km/h (1 Bft) NW 5,3 C 14,4 C 9,0 km/h (2 Bft)
30.10.2016 15:00 13,3 C 62 % 1028,8 hPa 0,0 l/m 2,8 km/h (1 Bft) NW 6,1 C 13,3 C 6,5 km/h (2 Bft)
30.10.2016 16:00 11,8 C 67 % 1028,7 hPa 0,0 l/m 1,5 km/h (1 Bft) W 5,8 C 11,8 C 5,0 km/h (1 Bft)
30.10.2016 17:00 8,5 C 80 % 1029,1 hPa 0,0 l/m 0,7 km/h (0 Bft) S-SW 5,2 C 8,5 C 2,5 km/h (1 Bft)
30.10.2016 18:00 6,4 C 87 % 1029,3 hPa 0,0 l/m 0,0 km/h (0 Bft) S-SW 4,4 C 6,4 C 0,3 km/h (0 Bft)
30.10.2016 19:00 4,6 C 92 % 1029,7 hPa 0,0 l/m 0,0 km/h (0 Bft) S-SW 3,4 C 4,6 C 0,3 km/h (0 Bft)
30.10.2016 20:00 3,8 C 94 % 1029,6 hPa 0,0 l/m 0,1 km/h (0 Bft) S-SW 2,9 C 3,8 C 0,5 km/h (0 Bft)
30.10.2016 21:00 3,3 C 95 % 1029,8 hPa 0,0 l/m 0,0 km/h (0 Bft) S-SW 2,6 C 3,3 C 0,4 km/h (0 Bft)
30.10.2016 22:00 2,6 C 95 % 1029,9 hPa 0,0 l/m 0,1 km/h (0 Bft) S-SW 2,0 C 2,6 C 0,4 km/h (0 Bft)
30.10.2016 23:00 2,1 C 96 % 1029,7 hPa 0,0 l/m 0,0 km/h (0 Bft) S-SW 1,5 C 2,1 C 0,0 km/h (0 Bft)
Min-Datum _ 28.10.16 30.10.16 24.10.16 - 30.10.16 - 28.10.16 28.10.16 30.10.16
_ Min-Zeit 08:05 14:00 00:14 - 23:00 - 08:05 08:05 23:00
Minimum _ 0,5 C 45 % 1012,5 hPa - 0,0 km/h (0 Bft) - 0,1 C 0,5 C 0,0 km/h (0 Bft)
Max-Datum _ 28.10.16 29.10.16 28.10.16 25.10.16 25.10.16 - 24.10.16 28.10.16 25.10.16
_ Max-Zeit 16:10 12:11 20:26 02:00 06:00 - 17:15 16:10 06:50
Maximum _ 16,2 C 99 % 1035,7 hPa 3,6 l/m 8,0 km/h
O-NO (2 Bft)
- 13,4 C 16,2 C 22,5 km/h
O-NO (4 Bft)
Durchschnitt _ 8,1 C 92 % 1027,4 hPa #21,6 l/m 0,8 km/h (0 Bft) N 6,8 C 8,1 C 2,3 km/h (1 Bft)